Time;durP1;ratioP1;P1;durP2;ratioP2;P2;SDS_P1;SDS_P2;PMS_P1;PMS_P2;Temp;Humidity;BMP_temperature;BMP_pressure;BME280_temperature;BME280_humidity;BME280_pressure;Samples;Min_cycle;Max_cycle;Signal;HPM_P1;HPM_P2
2021/07/29 00:00:18;;;;;;;16.65;5.53;;;;;;;25.44;45.84;99969.75;5087194;28;20024;-23
2021/07/29 00:02:44;;;;;;;9.60;4.93;;;;;;;25.56;45.60;99967.19;5087233;28;20028;-23
2021/07/29 00:05:10;;;;;;;8.40;4.70;;;;;;;25.63;45.80;99962.03;5086801;28;20035;-23
2021/07/29 00:07:35;;;;;;;13.05;5.32;;;;;;;25.34;46.16;99967.34;5087312;28;20551;-23
2021/07/29 00:10:02;;;;;;;9.07;5.10;;;;;;;25.56;45.90;99959.00;5087326;28;20853;-23
2021/07/29 00:12:27;;;;;;;11.20;6.57;;;;;;;25.79;45.04;99978.75;5087511;28;20039;-23
2021/07/29 00:14:53;;;;;;;13.50;5.53;;;;;;;25.88;44.68;99972.47;5087184;28;20126;-23
2021/07/29 00:20:23;;;;;;;11.25;5.75;;;;;;;25.85;44.73;99979.38;5049180;28;20044;-23
2021/07/29 00:22:52;;;;;;;11.43;5.50;;;;;;;25.91;44.45;99978.13;5087039;28;20024;-23
2021/07/29 00:25:17;;;;;;;14.10;6.22;;;;;;;26.06;43.90;99980.31;5086544;28;20536;-23
2021/07/29 00:27:43;;;;;;;12.52;5.80;;;;;;;26.41;43.06;99988.41;5087128;28;20107;-23
2021/07/29 00:30:09;;;;;;;12.95;5.80;;;;;;;26.47;42.53;99972.66;5087034;28;20032;-23
2021/07/29 00:32:35;;;;;;;18.55;6.82;;;;;;;26.51;42.15;99978.28;5086811;28;20024;-23
2021/07/29 00:35:05;;;;;;;15.73;6.35;;;;;;;26.72;41.41;99995.56;5086588;28;20431;-23
2021/07/29 00:37:31;;;;;;;14.85;7.07;;;;;;;26.94;41.03;99980.81;5086647;28;20024;-23
2021/07/29 00:39:56;;;;;;;16.35;7.93;;;;;;;27.06;40.75;99985.56;5086706;28;20024;-23
2021/07/29 00:42:22;;;;;;;17.23;6.65;;;;;;;27.09;40.46;99987.63;5086888;28;20556;-23
2021/07/29 00:44:47;;;;;;;19.58;8.15;;;;;;;26.79;41.13;99967.72;5086484;28;20036;-23
2021/07/29 00:47:14;;;;;;;17.33;7.53;;;;;;;26.89;41.10;99966.50;5086611;28;20039;-23
2021/07/29 00:49:40;;;;;;;16.58;7.63;;;;;;;26.88;41.39;99976.66;5052076;28;20513;-23
2021/07/29 00:52:05;;;;;;;16.70;7.13;;;;;;;26.93;41.70;99972.91;5086662;28;20032;-23
2021/07/29 00:54:31;;;;;;;16.80;8.25;;;;;;;26.93;40.73;99961.97;5068549;28;20050;-23
2021/07/29 00:56:56;;;;;;;31.50;13.93;;;;;;;26.91;41.23;99969.72;5086799;28;20502;-23
2021/07/29 00:59:22;;;;;;;23.45;11.88;;;;;;;26.32;42.66;99954.84;5086818;28;20036;-23
2021/07/29 01:01:47;;;;;;;22.92;12.85;;;;;;;26.06;43.75;99963.94;5086783;28;20089;-23
2021/07/29 01:04:13;;;;;;;21.17;12.23;;;;;;;25.82;44.03;99956.22;5089037;28;20032;-23
2021/07/29 01:06:38;;;;;;;20.65;10.07;;;;;;;25.81;44.67;99962.03;5072400;28;20028;-23
2021/07/29 01:09:10;;;;;;;21.35;10.52;;;;;;;25.50;45.30;99957.56;5089875;28;20031;-23
2021/07/29 01:11:36;;;;;;;19.63;9.48;;;;;;;25.21;46.18;99939.91;5090371;28;20028;-23
2021/07/29 01:14:02;;;;;;;12.23;7.80;;;;;;;24.99;46.93;99942.72;5090293;28;20035;-23
2021/07/29 01:16:28;;;;;;;14.57;6.85;;;;;;;25.00;47.16;99939.66;5090064;28;20373;-23
2021/07/29 01:18:54;;;;;;;16.58;7.47;;;;;;;24.82;47.32;99925.19;5089770;28;20032;-23
2021/07/29 01:21:19;;;;;;;17.80;7.30;;;;;;;25.49;45.71;99945.03;5089506;28;20028;-22
2021/07/29 01:23:44;;;;;;;10.38;5.88;;;;;;;25.30;45.44;99950.81;5089911;28;20483;-23
2021/07/29 01:26:10;;;;;;;15.85;6.20;;;;;;;24.99;47.05;99937.28;5089628;28;20055;-23
2021/07/29 01:28:35;;;;;;;13.38;6.80;;;;;;;25.03;46.56;99943.69;5089343;28;20114;-23
2021/07/29 01:31:01;;;;;;;16.48;6.18;;;;;;;25.02;46.64;99942.06;5089279;28;20036;-23
2021/07/29 01:33:26;;;;;;;15.57;6.72;;;;;;;24.81;48.01;99939.94;5089604;28;20065;-23
2021/07/29 01:35:52;;;;;;;13.75;6.72;;;;;;;25.10;46.64;99944.00;5089421;28;20032;-23
2021/07/29 01:38:17;;;;;;;15.25;6.75;;;;;;;24.85;47.41;99937.41;5089638;28;20094;-23
2021/07/29 01:40:43;;;;;;;15.52;7.50;;;;;;;24.28;49.12;99946.31;5089578;28;20028;-23
2021/07/29 01:43:08;;;;;;;14.00;6.78;;;;;;;24.30;49.03;99938.63;5089339;28;20035;-23
2021/07/29 01:45:34;;;;;;;13.43;7.00;;;;;;;24.88;47.56;99946.88;5089758;28;20061;-23
2021/07/29 01:47:59;;;;;;;15.82;6.50;;;;;;;24.14;48.84;99959.22;5089655;28;20385;-23
2021/07/29 01:50:24;;;;;;;12.45;7.32;;;;;;;23.88;50.14;99965.31;5089344;28;20032;-23
2021/07/29 01:52:50;;;;;;;12.65;6.78;;;;;;;24.21;48.95;99973.19;5089232;28;20036;-23
2021/07/29 01:55:15;;;;;;;13.38;7.15;;;;;;;24.15;49.48;99964.38;5089065;28;20031;-23
2021/07/29 01:57:41;;;;;;;11.73;7.22;;;;;;;24.06;49.65;99964.28;5089209;28;20464;-23
2021/07/29 02:00:07;;;;;;;14.55;7.03;;;;;;;24.21;48.74;99940.50;5089076;28;20028;-23
2021/07/29 02:02:32;;;;;;;12.55;7.07;;;;;;;24.29;49.21;99975.16;5089176;28;20028;-23
2021/07/29 02:04:58;;;;;;;13.35;6.90;;;;;;;24.04;50.27;99973.91;5088746;28;20031;-23
2021/07/29 02:07:23;;;;;;;12.27;7.00;;;;;;;24.10;50.04;99974.59;5089064;28;20540;-23
2021/07/29 02:09:49;;;;;;;12.25;6.47;;;;;;;24.27;49.56;99972.75;5089053;28;20023;-23
2021/07/29 02:12:14;;;;;;;10.73;6.88;;;;;;;23.95;50.36;99973.06;5088673;28;20036;-23
2021/07/29 02:14:40;;;;;;;15.48;6.95;;;;;;;23.94;50.02;99969.50;5088684;28;20562;-23
2021/07/29 02:17:05;;;;;;;14.18;6.55;;;;;;;23.95;49.67;99970.34;5088934;28;20036;-23
2021/07/29 02:19:32;;;;;;;14.13;7.32;;;;;;;23.81;50.14;99954.06;5089147;28;20912;-24
2021/07/29 02:21:58;;;;;;;14.75;7.32;;;;;;;23.79;50.68;99956.28;5088880;28;20032;-23
2021/07/29 02:24:23;;;;;;;15.55;7.30;;;;;;;24.01;50.58;99975.34;5088821;28;20081;-23
2021/07/29 02:26:49;;;;;;;13.45;6.97;;;;;;;24.40;48.64;99971.06;5088378;28;20579;-23
2021/07/29 02:29:14;;;;;;;14.90;7.22;;;;;;;24.18;48.94;99955.56;5088128;28;20056;-23
2021/07/29 02:31:40;;;;;;;16.38;8.23;;;;;;;23.81;50.73;99967.66;5088441;28;20479;-23
2021/07/29 02:34:05;;;;;;;17.88;7.53;;;;;;;23.67;50.90;99971.22;5088778;28;20101;-23
2021/07/29 02:36:31;;;;;;;15.18;7.45;;;;;;;23.71;51.35;99976.84;5088630;28;20036;-23
2021/07/29 02:38:56;;;;;;;13.85;6.88;;;;;;;23.73;50.75;99968.38;5088719;28;20036;-23
2021/07/29 02:41:22;;;;;;;16.42;7.35;;;;;;;23.63;50.99;99983.84;5087952;28;20043;-23
2021/07/29 02:43:47;;;;;;;14.25;6.82;;;;;;;23.36;52.33;99983.94;5088145;28;20027;-23
2021/07/29 02:46:13;;;;;;;16.63;7.78;;;;;;;23.22;52.79;99992.91;5088232;28;20113;-23
2021/07/29 02:48:38;;;;;;;20.30;7.95;;;;;;;23.34;52.15;99991.59;5088028;28;20471;-23
2021/07/29 02:51:04;;;;;;;16.60;7.60;;;;;;;23.47;51.87;99998.91;5088006;28;20381;-23
2021/07/29 02:53:32;;;;;;;18.65;7.85;;;;;;;23.51;51.87;99990.94;5088282;28;20035;-23
2021/07/29 02:55:58;;;;;;;15.73;7.60;;;;;;;23.75;51.30;99999.63;5087932;28;20036;-23
2021/07/29 02:58:24;;;;;;;16.58;7.10;;;;;;;23.56;51.36;99994.34;5088189;28;20038;-23
2021/07/29 03:00:51;;;;;;;20.15;7.35;;;;;;;23.49;51.32;99990.44;5088177;28;20028;-23
2021/07/29 03:03:16;;;;;;;16.35;7.50;;;;;;;23.51;52.32;99991.75;5088065;28;20781;-23
2021/07/29 03:05:42;;;;;;;16.77;7.50;;;;;;;23.72;51.31;100010.31;5088122;28;20028;-23
2021/07/29 03:08:07;;;;;;;15.15;7.45;;;;;;;23.74;51.14;100005.38;5087831;28;20036;-23
2021/07/29 03:10:32;;;;;;;18.98;7.68;;;;;;;23.39;51.87;99994.19;5087797;28;20035;-23
2021/07/29 03:13:01;;;;;;;23.85;8.90;;;;;;;23.34;51.91;99988.88;5087526;28;20039;-23
2021/07/29 03:15:29;;;;;;;23.67;8.00;;;;;;;23.37;52.28;99977.38;5070051;28;20551;-24
2021/07/29 03:17:54;;;;;;;14.57;7.80;;;;;;;23.39;51.99;100002.34;5087510;28;20036;-24
2021/07/29 03:20:21;;;;;;;28.17;8.23;;;;;;;23.50;51.43;100002.94;5069631;28;20089;-23
2021/07/29 03:22:46;;;;;;;31.35;8.48;;;;;;;23.42;51.99;99991.66;5087550;28;20760;-23
2021/07/29 03:25:12;;;;;;;16.85;8.10;;;;;;;23.56;51.97;100007.13;5087182;28;20028;-23
2021/07/29 03:27:37;;;;;;;18.10;8.60;;;;;;;23.42;51.69;100001.75;5086697;28;20109;-23
2021/07/29 03:30:03;;;;;;;16.92;8.70;;;;;;;23.70;51.59;100012.56;5087610;28;20029;-23
2021/07/29 03:32:29;;;;;;;17.00;8.15;;;;;;;23.55;53.05;100011.78;5087595;28;20093;-23
2021/07/29 03:34:54;;;;;;;17.23;7.68;;;;;;;23.59;52.13;100010.06;5087451;28;20032;-23
2021/07/29 03:37:20;;;;;;;16.33;8.70;;;;;;;23.47;52.04;100015.25;5086614;28;20035;-23
2021/07/29 03:39:45;;;;;;;14.38;9.27;;;;;;;23.84;51.72;100018.78;5087372;28;20031;-23
2021/07/29 03:42:11;;;;;;;36.55;16.45;;;;;;;23.76;51.00;100024.94;5087332;28;20408;-24
2021/07/29 03:44:36;;;;;;;34.30;13.43;;;;;;;24.35;50.04;100028.41;5087448;28;20038;-23
2021/07/29 03:47:02;;;;;;;30.63;13.02;;;;;;;24.35;49.86;100027.63;5087220;28;20043;-23
2021/07/29 03:49:27;;;;;;;65.00;28.88;;;;;;;24.19;49.91;99998.03;5087455;28;20077;-23
2021/07/29 03:51:53;;;;;;;121.68;59.63;;;;;;;24.47;48.97;100020.47;5087492;28;20039;-23
2021/07/29 03:54:18;;;;;;;127.80;61.83;;;;;;;24.32;49.99;100015.41;5087185;28;20035;-23
2021/07/29 03:56:44;;;;;;;82.68;42.33;;;;;;;24.34;50.58;100015.91;5087180;28;20416;-23
2021/07/29 03:59:09;;;;;;;73.50;38.15;;;;;;;23.93;51.30;100021.59;5086905;28;20073;-23
2021/07/29 04:01:35;;;;;;;61.10;29.95;;;;;;;24.24;49.58;100002.56;5069000;28;20032;-23
2021/07/29 04:04:00;;;;;;;58.13;23.95;;;;;;;24.49;49.64;99997.53;5087054;28;20039;-23
2021/07/29 04:06:25;;;;;;;46.40;24.80;;;;;;;24.02;52.11;100020.50;5087104;28;20415;-23
2021/07/29 04:08:51;;;;;;;70.63;34.67;;;;;;;24.46;50.65;100013.41;5087039;28;20077;-23
2021/07/29 04:11:16;;;;;;;64.93;31.25;;;;;;;24.79;48.86;99999.47;5086793;28;20039;-23
2021/07/29 04:13:42;;;;;;;65.20;31.92;;;;;;;24.51;50.68;100009.78;5087032;28;20506;-23
2021/07/29 04:16:08;;;;;;;50.38;27.88;;;;;;;24.26;51.75;100003.03;5087053;28;20032;-23
2021/07/29 04:18:35;;;;;;;50.20;24.95;;;;;;;23.97;52.56;100001.59;5087164;28;20024;-23
2021/07/29 04:21:00;;;;;;;27.85;17.55;;;;;;;23.86;53.07;100006.47;5068718;28;20101;-23
2021/07/29 04:23:26;;;;;;;30.20;15.00;;;;;;;23.75;53.46;100009.72;5087228;28;20028;-23
2021/07/29 04:25:52;;;;;;;31.17;15.07;;;;;;;23.58;53.54;100016.63;5087434;28;20480;-23
2021/07/29 04:28:17;;;;;;;30.75;13.73;;;;;;;23.92;52.81;100014.50;5086889;28;20063;-23
2021/07/29 04:30:43;;;;;;;25.15;11.25;;;;;;;24.06;51.44;100009.81;5086977;28;20403;-23
2021/07/29 04:33:09;;;;;;;26.48;11.90;;;;;;;24.06;51.64;99994.25;5086912;28;20093;-23
2021/07/29 04:35:34;;;;;;;27.23;11.55;;;;;;;24.41;50.57;100004.56;5086881;28;20024;-23
2021/07/29 04:38:00;;;;;;;20.77;9.55;;;;;;;24.52;49.86;99994.22;5088867;28;20031;-23
2021/07/29 04:40:25;;;;;;;19.00;9.27;;;;;;;24.63;49.40;99993.63;5090698;28;20035;-23
2021/07/29 04:42:51;;;;;;;20.25;8.93;;;;;;;24.63;49.59;99996.34;5090676;28;20555;-23
2021/07/29 04:45:16;;;;;;;18.60;8.80;;;;;;;24.64;49.44;100008.06;5090469;28;20027;-23
2021/07/29 04:47:42;;;;;;;19.35;9.52;;;;;;;24.78;50.20;100011.47;5090535;28;20035;-23
2021/07/29 04:50:07;;;;;;;18.75;8.85;;;;;;;25.01;48.12;100000.50;5090522;28;20437;-23
2021/07/29 04:52:34;;;;;;;19.35;8.68;;;;;;;25.54;46.95;100017.78;5090728;28;20028;-23
2021/07/29 04:54:59;;;;;;;22.33;8.65;;;;;;;25.69;47.03;100019.25;5072702;28;20060;-23
2021/07/29 04:57:24;;;;;;;19.27;8.50;;;;;;;26.00;46.93;100016.34;5090506;28;20093;-23
2021/07/29 04:59:50;;;;;;;17.00;8.32;;;;;;;26.11;45.70;100023.06;5090480;28;20032;-23
2021/07/29 05:02:17;;;;;;;19.05;8.00;;;;;;;26.34;44.88;100023.69;5090515;28;20040;-23
2021/07/29 05:04:42;;;;;;;17.42;8.73;;;;;;;26.62;44.44;100026.03;5090783;28;20028;-23
2021/07/29 05:07:10;;;;;;;26.45;8.45;;;;;;;26.53;45.16;100006.09;5090085;28;20036;-23
2021/07/29 05:09:36;;;;;;;15.65;7.32;;;;;;;26.05;45.81;100025.19;5090211;28;20522;-23
2021/07/29 05:12:01;;;;;;;17.30;7.88;;;;;;;26.41;45.11;100017.69;5090196;28;20036;-23
2021/07/29 05:14:27;;;;;;;14.52;7.22;;;;;;;26.48;45.33;100018.00;5090078;28;20377;-23
2021/07/29 05:16:52;;;;;;;18.88;7.40;;;;;;;26.86;44.88;100011.75;5090296;28;20040;-23
2021/07/29 05:19:18;;;;;;;15.65;8.05;;;;;;;27.12;43.84;100003.41;5089873;28;20484;-23
2021/07/29 05:21:43;;;;;;;13.20;7.38;;;;;;;27.10;44.14;100011.16;5089854;28;20031;-24
2021/07/29 05:24:09;;;;;;;15.32;6.85;;;;;;;27.12;43.40;99995.19;5089966;28;20043;-23
2021/07/29 05:26:34;;;;;;;16.00;7.15;;;;;;;27.41;42.83;100015.47;5089523;28;20480;-23
2021/07/29 05:29:00;;;;;;;15.25;7.78;;;;;;;27.70;42.82;100016.53;5089269;28;20044;-23
2021/07/29 05:31:25;;;;;;;19.45;8.02;;;;;;;27.72;42.46;100003.31;5089743;28;20024;-23
2021/07/29 05:33:51;;;;;;;14.82;6.80;;;;;;;27.95;41.47;100023.78;5089813;28;20093;-23
2021/07/29 05:36:16;;;;;;;14.00;6.68;;;;;;;27.96;41.31;100019.09;5089483;28;20039;-24
2021/07/29 05:38:41;;;;;;;11.00;6.32;;;;;;;27.84;41.77;100017.06;5089756;28;20066;-23
2021/07/29 05:41:08;;;;;;;11.32;6.05;;;;;;;27.65;42.00;100012.88;5089628;28;20028;-23
2021/07/29 05:43:37;;;;;;;15.50;6.75;;;;;;;27.52;42.50;100021.34;5089660;28;20036;-24
2021/07/29 05:46:07;;;;;;;12.68;6.18;;;;;;;28.03;40.92;100022.88;5089696;28;20118;-23
2021/07/29 05:48:32;;;;;;;13.43;6.90;;;;;;;28.24;40.88;100022.03;5088627;28;20410;-23
2021/07/29 05:50:58;;;;;;;14.63;7.28;;;;;;;28.05;41.62;100025.28;5088934;28;20043;-23
2021/07/29 05:53:24;;;;;;;16.77;6.78;;;;;;;28.15;42.24;100021.31;5089459;28;20040;-23
2021/07/29 05:55:51;;;;;;;12.57;5.70;;;;;;;28.11;41.54;100001.19;5089427;28;20552;-23
2021/07/29 05:58:17;;;;;;;10.18;5.32;;;;;;;28.29;37.51;100008.09;5089242;28;20086;-23
2021/07/29 06:00:42;;;;;;;11.82;5.28;;;;;;;28.57;37.27;100021.22;5089553;28;20768;-23
2021/07/29 06:03:08;;;;;;;11.38;5.50;;;;;;;28.58;38.06;100028.28;5089102;28;20039;-23
2021/07/29 06:05:33;;;;;;;13.73;6.57;;;;;;;28.43;41.04;100021.50;5088988;28;20035;-23
2021/07/29 06:07:59;;;;;;;10.55;6.20;;;;;;;28.27;41.16;100020.56;5089257;28;20405;-23
2021/07/29 06:10:25;;;;;;;10.20;5.97;;;;;;;28.08;40.35;100021.88;5088889;28;20031;-23
2021/07/29 06:12:51;;;;;;;11.80;6.70;;;;;;;28.66;39.15;100024.63;5088650;28;20736;-23
2021/07/29 06:15:16;;;;;;;13.98;6.63;;;;;;;28.22;40.78;100019.63;5088585;28;20569;-23
2021/07/29 06:17:45;;;;;;;12.32;6.32;;;;;;;28.17;41.10;100013.56;5088680;28;20028;-23
2021/07/29 06:20:11;;;;;;;14.35;6.35;;;;;;;28.08;40.63;100021.06;5088671;28;20498;-23
2021/07/29 06:22:36;;;;;;;11.43;6.28;;;;;;;28.47;41.87;100021.63;5089021;28;20024;-23
2021/07/29 06:25:08;;;;;;;9.25;5.75;;;;;;;28.87;38.34;100020.97;5088384;28;20031;-23
2021/07/29 06:27:35;;;;;;;14.75;7.40;;;;;;;29.14;37.31;100031.31;5088145;28;20487;-23
2021/07/29 06:30:00;;;;;;;12.20;8.00;;;;;;;29.56;37.17;100033.72;5088515;28;20463;-23
2021/07/29 06:32:26;;;;;;;14.77;7.90;;;;;;;29.93;36.71;100030.88;5088462;28;20048;-23
2021/07/29 06:34:51;;;;;;;12.93;6.07;;;;;;;29.29;36.61;100012.50;5088560;28;20031;-23
2021/07/29 06:37:17;;;;;;;16.20;6.07;;;;;;;29.73;35.28;100018.13;5088333;28;20039;-24
2021/07/29 06:39:42;;;;;;;12.10;6.57;;;;;;;29.84;37.45;100016.50;5088337;28;20027;-23
2021/07/29 06:42:08;;;;;;;11.25;6.45;;;;;;;29.87;36.55;100018.53;5088260;28;20035;-23
2021/07/29 06:44:33;;;;;;;11.98;5.72;;;;;;;29.86;35.94;100019.69;5088430;28;20115;-23
2021/07/29 06:46:59;;;;;;;13.05;6.15;;;;;;;30.09;36.26;100021.88;5088141;28;20024;-23
2021/07/29 06:49:28;;;;;;;12.68;6.40;;;;;;;30.04;36.66;100020.19;5088129;28;20024;-23
2021/07/29 06:51:54;;;;;;;13.00;6.05;;;;;;;30.10;35.25;100017.97;5087984;28;20048;-23
2021/07/29 06:54:19;;;;;;;9.50;5.85;;;;;;;29.68;37.07;100026.59;5088481;28;20067;-23
2021/07/29 06:56:45;;;;;;;11.15;6.38;;;;;;;29.54;36.34;100013.25;5088290;28;20050;-23
2021/07/29 06:59:10;;;;;;;12.43;6.95;;;;;;;29.85;36.53;100012.56;5088233;28;20028;-23
2021/07/29 07:01:36;;;;;;;14.68;6.20;;;;;;;29.63;35.67;100011.97;5070264;28;20039;-23
2021/07/29 07:04:01;;;;;;;8.85;5.75;;;;;;;29.63;36.79;100014.72;5087784;28;20510;-23
2021/07/29 07:06:26;;;;;;;10.45;5.63;;;;;;;30.22;36.49;100020.66;5087890;28;20162;-23
2021/07/29 07:08:52;;;;;;;11.88;5.20;;;;;;;30.08;35.01;100006.50;5087687;28;20024;-23
2021/07/29 07:11:18;;;;;;;10.13;5.90;;;;;;;29.84;36.08;99997.25;5087507;28;20415;-23
2021/07/29 07:13:44;;;;;;;10.73;5.65;;;;;;;29.94;35.69;100002.25;5087918;28;20028;-23
2021/07/29 07:16:13;;;;;;;7.05;5.20;;;;;;;30.22;34.37;99998.66;5087892;28;20051;-23
2021/07/29 07:18:39;;;;;;;10.55;5.30;;;;;;;29.93;36.39;100006.13;5087659;28;20031;-23
2021/07/29 07:21:06;;;;;;;7.55;5.72;;;;;;;29.87;34.32;100010.28;5087275;28;20063;-23
2021/07/29 07:23:32;;;;;;;10.93;5.20;;;;;;;30.43;34.71;100014.94;5087640;28;20028;-23
2021/07/29 07:25:57;;;;;;;9.05;5.30;;;;;;;30.66;34.48;100012.34;5087568;28;20649;-23
2021/07/29 07:28:22;;;;;;;9.45;5.20;;;;;;;30.70;35.02;100010.50;5087218;28;20138;-23
2021/07/29 07:30:48;;;;;;;7.90;4.93;;;;;;;30.61;34.04;100015.41;5087605;28;20071;-23
2021/07/29 07:33:15;;;;;;;11.85;5.47;;;;;;;30.69;33.00;100017.16;5069350;28;20047;-23
2021/07/29 07:35:40;;;;;;;7.80;4.88;;;;;;;30.83;31.79;100009.25;5087443;28;20036;-22
2021/07/29 07:38:06;;;;;;;9.88;5.15;;;;;;;30.88;33.41;100012.91;5087617;28;20514;-23
2021/07/29 07:40:31;;;;;;;10.73;5.30;;;;;;;31.12;33.24;100009.94;5087174;28;20020;-23
2021/07/29 07:42:57;;;;;;;8.50;4.78;;;;;;;30.88;32.62;99999.16;5087487;28;20093;-23
2021/07/29 07:45:23;;;;;;;7.75;4.45;;;;;;;30.38;32.36;99995.94;5087639;28;20028;-23
2021/07/29 07:47:49;;;;;;;8.80;5.40;;;;;;;31.08;31.07;99988.97;5069425;28;20096;-23
2021/07/29 07:50:14;;;;;;;6.60;4.85;;;;;;;31.23;32.18;99980.66;5087425;28;20829;-23
2021/07/29 07:52:39;;;;;;;9.82;4.80;;;;;;;31.01;32.58;99986.84;5087138;28;20032;-23
2021/07/29 07:55:05;;;;;;;9.68;5.20;;;;;;;31.02;33.14;100002.22;5086788;28;20028;-23
2021/07/29 07:57:31;;;;;;;8.93;5.20;;;;;;;31.08;32.25;99984.28;5087143;28;20526;-23
2021/07/29 07:59:58;;;;;;;10.10;5.40;;;;;;;31.50;31.53;99985.56;5086999;28;20032;-23
2021/07/29 08:02:25;;;;;;;8.50;5.13;;;;;;;31.77;30.47;99978.22;5087123;28;20415;-23
2021/07/29 08:04:51;;;;;;;10.55;5.40;;;;;;;32.32;30.68;99978.84;5069257;28;20388;-23
2021/07/29 08:07:16;;;;;;;7.63;5.00;;;;;;;32.09;30.46;99972.53;5086948;28;20043;-23
2021/07/29 08:09:41;;;;;;;12.68;5.22;;;;;;;32.32;30.52;99980.81;5086993;28;20801;-23
2021/07/29 08:12:07;;;;;;;10.52;4.80;;;;;;;31.96;29.07;99972.69;5088088;28;20031;-23
2021/07/29 08:14:34;;;;;;;12.00;5.40;;;;;;;32.31;28.55;99970.97;5073141;28;20420;-23
2021/07/29 08:17:01;;;;;;;9.88;5.10;;;;;;;32.88;28.42;99982.94;5091063;28;20056;-23
2021/07/29 08:19:26;;;;;;;10.02;5.18;;;;;;;33.01;28.71;99975.22;5091106;28;20028;-23
2021/07/29 08:21:52;;;;;;;8.43;4.82;;;;;;;33.32;28.58;99984.34;5091273;28;20028;-23
2021/07/29 08:24:17;;;;;;;9.20;5.05;;;;;;;32.98;29.35;99976.75;5090782;28;20038;-23
2021/07/29 08:26:44;;;;;;;10.32;5.05;;;;;;;32.89;29.07;99972.66;5090923;28;20480;-23
2021/07/29 08:29:10;;;;;;;17.40;5.50;;;;;;;33.20;27.83;99969.59;5090509;28;20056;-23
2021/07/29 08:31:35;;;;;;;10.07;5.22;;;;;;;33.25;28.96;99956.63;5091066;28;20036;-23
2021/07/29 08:34:01;;;;;;;9.07;5.28;;;;;;;33.35;28.44;99962.28;5091179;28;20093;-23
2021/07/29 08:36:26;;;;;;;11.38;5.20;;;;;;;33.77;27.58;99957.63;5091382;28;20024;-23
2021/07/29 08:38:52;;;;;;;10.98;5.50;;;;;;;33.68;27.68;99946.09;5090722;28;20562;-23
2021/07/29 08:41:18;;;;;;;11.57;5.20;;;;;;;33.41;28.56;99959.97;5090781;28;20039;-23
2021/07/29 08:43:44;;;;;;;10.77;5.88;;;;;;;33.62;27.58;99953.91;5090326;28;20058;-23
2021/07/29 08:46:10;;;;;;;11.70;6.40;;;;;;;33.72;27.73;99955.22;5090646;28;20492;-23
2021/07/29 08:48:38;;;;;;;11.05;5.50;;;;;;;33.54;29.75;99955.78;5072564;28;20453;-23
2021/07/29 08:51:04;;;;;;;18.30;12.45;;;;;;;33.88;28.32;99960.50;5055884;28;20038;-23
2021/07/29 08:53:29;;;;;;;11.18;7.00;;;;;;;33.85;27.25;99956.53;5090355;28;20040;-23
2021/07/29 08:55:55;;;;;;;9.60;6.32;;;;;;;33.84;27.51;99935.59;5090560;28;20024;-23
2021/07/29 08:58:21;;;;;;;13.35;6.80;;;;;;;34.29;26.57;99941.94;5090341;28;20067;-23
2021/07/29 09:01:00;;;;;;;12.85;6.47;;;;;;;34.37;28.19;99938.06;5090428;28;20024;-23
2021/07/29 09:03:27;;;;;;;13.13;6.55;;;;;;;34.54;26.48;99942.13;5090684;28;20038;-22
2021/07/29 09:06:01;;;;;;;;;;;;;;;34.74;26.16;99936.38;5090753;28;20147;-23
2021/07/29 09:08:43;;;;;;;12.18;6.80;;;;;;;34.58;25.98;99926.34;5090269;28;20385;-23
2021/07/29 09:11:37;;;;;;;13.50;6.95;;;;;;;34.43;26.64;99930.19;5090475;28;20024;-23
2021/07/29 09:14:17;;;;;;;13.35;7.40;;;;;;;34.55;25.91;99927.13;5089775;28;20040;-23
2021/07/29 09:16:59;;;;;;;13.60;6.50;;;;;;;35.00;25.75;99927.81;5090160;28;20396;-23
2021/07/29 09:19:45;;;;;;;9.30;6.22;;;;;;;34.81;26.70;99917.78;5089881;28;20034;-23
2021/07/29 09:22:22;;;;;;;12.57;7.00;;;;;;;35.04;25.85;99918.69;5089961;28;20460;-23
2021/07/29 09:25:02;;;;;;;14.95;6.90;;;;;;;35.11;24.90;99914.00;5089223;28;20057;-23
2021/07/29 09:27:37;;;;;;;15.02;6.75;;;;;;;35.12;25.87;99909.22;5089876;28;20028;-23
2021/07/29 09:30:12;;;;;;;12.23;7.15;;;;;;;34.96;25.78;99884.63;5089884;28;20052;-23
2021/07/29 09:32:59;;;;;;;15.02;7.00;;;;;;;34.92;25.42;99889.34;5090034;28;20034;-23
2021/07/29 09:35:38;;;;;;;13.18;7.10;;;;;;;35.24;25.87;99895.06;5089848;28;20419;-23
2021/07/29 09:38:27;;;;;;;11.63;6.93;;;;;;;35.54;24.60;99893.97;5089833;28;20036;-23
2021/07/29 09:41:06;;;;;;;19.10;8.18;;;;;;;35.17;25.84;99908.91;5089586;28;20085;-23
2021/07/29 09:43:34;;;;;;;13.40;6.55;;;;;;;35.45;24.83;99899.06;5089569;28;20028;-23
2021/07/29 09:46:01;;;;;;;11.73;6.47;;;;;;;35.44;26.66;99892.75;5071581;28;20063;-23
2021/07/29 09:48:27;;;;;;;13.63;6.57;;;;;;;36.09;25.02;99892.84;5089690;28;20040;-23
2021/07/29 09:50:59;;;;;;;14.30;9.07;;;;;;;36.50;24.86;99884.09;5071506;28;20036;-23
2021/07/29 09:53:32;;;;;;;15.63;8.55;;;;;;;36.86;23.40;99895.94;5089243;28;20028;-23
2021/07/29 09:55:58;;;;;;;14.15;7.00;;;;;;;36.51;24.40;99880.13;5072491;28;20039;-23
2021/07/29 09:58:24;;;;;;;16.85;7.28;;;;;;;36.16;24.17;99898.41;5071456;28;20088;-22
2021/07/29 10:00:49;;;;;;;10.18;6.53;;;;;;;35.92;24.33;99886.91;5089483;28;20020;-23
2021/07/29 10:03:15;;;;;;;11.75;7.00;;;;;;;35.64;24.51;99884.09;5089434;28;20036;-23
2021/07/29 10:06:04;;;;;;;14.63;7.00;;;;;;;35.92;24.69;99878.59;5070916;28;20097;-23
2021/07/29 10:08:37;;;;;;;11.10;6.53;;;;;;;35.87;24.26;99859.53;5072610;28;20039;-23
2021/07/29 10:11:07;;;;;;;10.48;6.90;;;;;;;36.32;23.98;99857.16;5088942;28;20032;-23
2021/07/29 10:13:36;;;;;;;12.48;7.05;;;;;;;36.91;24.77;99869.72;5089008;28;20019;-23
2021/07/29 10:16:02;;;;;;;14.48;7.18;;;;;;;36.93;24.31;99861.78;5088860;28;20465;-23
2021/07/29 10:18:53;;;;;;;14.65;7.65;;;;;;;36.92;23.96;99869.31;5054218;28;20024;-23
2021/07/29 10:21:26;;;;;;;14.93;7.00;;;;;;;37.22;23.03;99872.78;5072673;28;20028;-23
2021/07/29 10:24:01;;;;;;;11.68;6.20;;;;;;;37.31;25.10;99867.56;5088626;28;20111;-23
2021/07/29 10:26:30;;;;;;;15.65;7.13;;;;;;;37.16;23.17;99848.16;5088456;28;20028;-23
2021/07/29 10:29:22;;;;;;;13.90;7.22;;;;;;;37.43;23.63;99867.06;5088460;28;20055;-23
2021/07/29 10:31:51;;;;;;;15.77;7.47;;;;;;;37.25;22.42;99860.84;5088635;28;20495;-23
2021/07/29 10:34:32;;;;;;;13.05;6.50;;;;;;;37.91;22.16;99851.66;5088490;28;20032;-23
2021/07/29 10:37:04;;;;;;;12.30;6.70;;;;;;;37.54;22.81;99856.69;5088275;28;20039;-23
2021/07/29 10:39:30;;;;;;;16.13;6.78;;;;;;;37.42;22.78;99854.38;5088486;28;20070;-23
2021/07/29 10:41:56;;;;;;;13.52;7.10;;;;;;;37.72;21.70;99845.47;5088491;28;20070;-23
2021/07/29 10:44:36;;;;;;;14.25;6.78;;;;;;;37.73;21.85;99844.25;5088348;28;20087;-23
2021/07/29 10:47:06;;;;;;;15.40;6.90;;;;;;;38.33;21.61;99850.50;5088229;28;20063;-23
2021/07/29 10:49:44;;;;;;;19.48;7.00;;;;;;;38.29;22.73;99844.19;5087956;28;20036;-23
2021/07/29 10:52:10;;;;;;;14.35;7.45;;;;;;;38.45;21.12;99823.31;5088446;28;20028;-23
2021/07/29 10:54:38;;;;;;;15.73;7.40;;;;;;;37.75;22.59;99835.50;5088313;28;20028;-23
2021/07/29 10:57:04;;;;;;;16.80;7.05;;;;;;;38.17;20.46;99841.91;5087744;28;20040;-23
2021/07/29 10:59:31;;;;;;;12.77;7.47;;;;;;;38.27;20.12;99835.44;5088161;28;20032;-23
2021/07/29 11:01:59;;;;;;;18.92;7.15;;;;;;;39.11;20.29;99833.28;5087927;28;20727;-23
2021/07/29 11:04:28;;;;;;;17.70;6.63;;;;;;;39.30;19.66;99823.47;5070244;28;20078;-23
2021/07/29 11:07:05;;;;;;;15.10;8.05;;;;;;;38.94;21.42;99826.72;5087758;28;20036;-23
2021/07/29 11:09:30;;;;;;;;;;;;;;;39.45;19.41;99824.06;5088220;28;20768;-23
2021/07/29 11:11:56;;;;;;;14.47;6.87;;;;;;;39.50;18.60;99818.78;5087800;28;19919;-23
2021/07/29 11:14:34;;;;;;;14.13;7.10;;;;;;;39.09;18.80;99819.78;5087770;28;20032;-23
2021/07/29 11:17:01;;;;;;;15.02;6.55;;;;;;;39.17;19.39;99824.03;5069250;28;20105;-23
2021/07/29 11:19:26;;;;;;;14.55;7.25;;;;;;;39.29;19.39;99814.28;5087731;28;20059;-23
2021/07/29 11:22:07;;;;;;;17.87;6.90;;;;;;;39.55;19.50;99815.50;5087590;28;20024;-23
2021/07/29 11:24:33;;;;;;;16.90;6.85;;;;;;;39.74;18.94;99810.41;5087583;28;20058;-23